Time;durP1;ratioP1;P1;durP2;ratioP2;P2;SDS_P1;SDS_P2;PMS_P1;PMS_P2;Temp;Humidity;BMP_temperature;BMP_pressure;BME280_temperature;BME280_humidity;BME280_pressure;Samples;Min_cycle;Max_cycle;Signal;HPM_P1;HPM_P2
2023/11/27 00:07:28;;;;;;;33.30;18.00;;;;;;;-3.11;88.16;97932.22;436854;1247;107340;-40
2023/11/27 00:17:35;;;;;;;38.10;20.10;;;;;;;-3.06;88.02;97928.69;436700;1253;97470;-39
2023/11/27 00:27:43;;;;;;;43.20;21.30;;;;;;;-3.01;88.18;97929.18;436571;1251;111437;-38
2023/11/27 00:37:50;;;;;;;31.80;17.50;;;;;;;-2.95;88.31;97927.66;436465;1248;108079;-39
2023/11/27 00:58:04;;;;;;;19.50;11.70;;;;;;;-2.74;88.00;97913.36;436580;1253;108871;-39
2023/11/27 01:18:19;;;;;;;22.30;12.30;;;;;;;-3.00;87.67;97901.14;436766;1253;97384;-39
2023/11/27 01:28:26;;;;;;;23.00;12.70;;;;;;;-3.41;87.25;97893.35;436634;1252;109794;-40
2023/11/27 01:38:34;;;;;;;20.80;12.80;;;;;;;-3.78;87.18;97888.31;436833;1253;108392;-39
2023/11/27 01:48:41;;;;;;;39.20;18.50;;;;;;;-4.17;87.16;97882.64;436690;1248;97478;-39
2023/11/27 02:19:03;;;;;;;37.40;19.50;;;;;;;-4.45;87.48;97858.83;438068;1250;96625;-38
2023/11/27 02:29:10;;;;;;;42.20;24.20;;;;;;;-4.34;87.97;97852.02;437506;1250;109593;-39
2023/11/27 02:39:18;;;;;;;41.60;20.60;;;;;;;-4.18;88.23;97843.52;437604;1250;108228;-40
2023/11/27 02:49:25;;;;;;;41.30;22.40;;;;;;;-4.13;88.38;97846.22;437419;1247;96578;-39
2023/11/27 02:59:31;;;;;;;30.20;16.70;;;;;;;-3.99;88.65;97839.65;437416;1251;109765;-39
2023/11/27 03:09:38;;;;;;;23.90;12.70;;;;;;;-3.79;88.63;97835.21;437440;1250;107005;-38
2023/11/27 03:19:44;;;;;;;25.50;14.40;;;;;;;-3.66;88.32;97829.84;437512;1251;97871;-39
2023/11/27 03:29:54;;;;;;;21.70;13.10;;;;;;;-3.61;88.26;97824.15;437588;1250;110399;-39
2023/11/27 03:40:02;;;;;;;23.20;14.50;;;;;;;-3.79;88.31;97816.68;437520;1250;108215;-38
2023/11/27 03:50:11;;;;;;;26.30;14.10;;;;;;;-3.92;88.22;97811.27;437641;1253;97884;-38
2023/11/27 04:00:16;;;;;;;27.80;15.10;;;;;;;-4.15;88.27;97807.59;437732;1247;109818;-39
2023/11/27 04:10:25;;;;;;;23.90;14.20;;;;;;;-4.27;88.54;97813.94;437484;1250;108447;-39
2023/11/27 04:20:32;;;;;;;;;;;;;;;-4.39;88.11;97820.34;437312;1259;97887;-41
2023/11/27 04:30:40;;;;;;;43.60;23.80;;;;;;;-4.55;87.91;97828.13;437377;1250;109562;-40
2023/11/27 04:40:46;;;;;;;69.90;33.20;;;;;;;-4.49;88.29;97820.98;437597;1251;107820;-40
2023/11/27 04:50:53;;;;;;;54.90;25.50;;;;;;;-4.52;88.40;97809.95;437556;1260;97877;-39
2023/11/27 05:00:59;;;;;;;45.10;23.40;;;;;;;-4.65;88.47;97809.87;437423;1250;110356;-38
2023/11/27 05:11:05;;;;;;;41.40;21.90;;;;;;;-4.79;88.34;97809.63;437505;1251;107645;-38
2023/11/27 05:21:13;;;;;;;50.20;25.40;;;;;;;-4.85;88.48;97812.46;437644;1248;97597;-38
2023/11/27 05:31:23;;;;;;;35.20;21.80;;;;;;;-4.69;88.81;97817.31;437570;1250;109324;-39
2023/11/27 05:41:31;;;;;;;35.20;24.20;;;;;;;-4.40;88.96;97820.75;437483;1248;107985;-40
2023/11/27 05:51:41;;;;;;;32.60;17.90;;;;;;;-4.17;88.98;97806.45;437429;1248;97384;-40
2023/11/27 06:01:48;;;;;;;36.70;20.70;;;;;;;-4.08;89.35;97804.37;437453;1248;108450;-39
2023/11/27 06:11:56;;;;;;;36.60;18.90;;;;;;;-4.13;89.24;97797.71;437468;1250;97868;-40
2023/11/27 06:32:08;;;;;;;58.10;25.40;;;;;;;-4.23;89.43;97794.42;437559;1251;110394;-41
2023/11/27 06:42:14;;;;;;;49.70;27.60;;;;;;;-4.12;89.17;97795.39;437440;1260;108164;-39
2023/11/27 06:52:22;;;;;;;50.50;27.10;;;;;;;-3.81;89.56;97799.42;437440;1248;97802;-39
2023/11/27 07:02:30;;;;;;;28.40;17.00;;;;;;;-3.43;89.59;97794.38;437552;1250;110949;-40
2023/11/27 07:12:36;;;;;;;64.70;36.20;;;;;;;-3.25;89.56;97795.23;437329;1248;107684;-39
2023/11/27 07:22:43;;;;;;;48.30;25.30;;;;;;;-3.25;89.60;97796.11;437496;1251;97454;-40
2023/11/27 07:32:50;;;;;;;47.80;25.40;;;;;;;-3.32;89.41;97792.84;437498;1251;109343;-40
2023/11/27 07:42:57;;;;;;;53.30;26.90;;;;;;;-3.38;89.42;97802.30;437511;1251;109063;-39
2023/11/27 08:03:15;;;;;;;33.50;17.40;;;;;;;-1.10;91.67;97798.30;437478;1251;110638;-40
2023/11/27 08:13:22;;;;;;;28.70;15.10;;;;;;;1.00;91.21;97785.30;437621;1248;108566;-39
2023/11/27 08:23:28;;;;;;;23.30;12.60;;;;;;;1.82;89.80;97785.55;437566;1250;97848;-40
2023/11/27 08:33:34;;;;;;;25.00;13.80;;;;;;;1.13;88.19;97793.88;437543;1251;110473;-40
2023/11/27 08:43:41;;;;;;;31.00;14.40;;;;;;;0.71;88.36;97797.75;437501;1250;97472;-40
2023/11/27 08:53:48;;;;;;;21.00;12.50;;;;;;;0.57;88.10;97797.14;437401;1251;97861;-39
2023/11/27 09:14:02;;;;;;;21.70;11.80;;;;;;;-0.17;87.89;97791.56;437681;1250;110181;-40
2023/11/27 09:24:08;;;;;;;14.20;7.70;;;;;;;-0.42;87.57;97786.27;437605;1250;107718;-40
2023/11/27 09:34:15;;;;;;;10.10;7.10;;;;;;;-0.64;87.07;97782.42;437603;1248;97887;-40
2023/11/27 09:44:22;;;;;;;18.80;11.00;;;;;;;-0.23;87.44;97773.26;437661;1247;111647;-40
2023/11/27 10:14:45;;;;;;;24.00;12.00;;;;;;;0.07;86.99;97737.66;437685;1250;108881;-39
2023/11/27 10:24:53;;;;;;;15.70;9.00;;;;;;;0.44;86.60;97713.76;437620;1251;107585;-39
2023/11/27 10:35:03;;;;;;;12.50;6.50;;;;;;;0.52;85.80;97702.51;437744;1250;97884;-40
2023/11/27 10:55:14;;;;;;;10.80;6.20;;;;;;;0.64;85.35;97698.19;437706;1251;97473;-40
2023/11/27 11:25:38;;;;;;;10.20;5.20;;;;;;;0.38;83.64;97695.66;437610;1250;107762;-40
2023/11/27 11:35:46;;;;;;;9.70;4.30;;;;;;;0.15;83.27;97687.02;437208;1247;97826;-38
2023/11/27 11:45:55;;;;;;;8.70;4.90;;;;;;;0.23;83.61;97676.19;437598;1250;99092;-40
2023/11/27 11:56:18;;;;;;;10.20;5.40;;;;;;;0.19;83.53;97671.05;437514;1250;109850;-40
2023/11/27 12:06:26;;;;;;;8.90;4.90;;;;;;;0.04;83.29;97666.74;437523;1250;107526;-38
2023/11/27 12:16:33;;;;;;;7.20;3.60;;;;;;;0.06;83.25;97652.61;437635;1250;96638;-40
2023/11/27 12:26:40;;;;;;;5.30;3.30;;;;;;;0.17;82.89;97649.17;437539;1250;109554;-39
2023/11/27 12:36:46;;;;;;;8.70;4.50;;;;;;;0.25;83.22;97642.41;437612;1247;106362;-39
2023/11/27 12:46:55;;;;;;;10.10;4.60;;;;;;;0.38;83.31;97626.85;437379;1250;383837;-40
2023/11/27 12:57:08;;;;;;;9.10;4.30;;;;;;;0.31;83.12;97628.45;437626;1247;111931;-39
2023/11/27 13:07:19;;;;;;;13.60;5.90;;;;;;;0.27;82.92;97626.06;437724;1248;107906;-40
2023/11/27 13:17:25;;;;;;;11.10;5.80;;;;;;;0.21;82.89;97607.65;437668;1248;97766;-40
2023/11/27 13:27:33;;;;;;;38.90;14.50;;;;;;;0.04;82.81;97610.36;437785;1250;97462;-39
2023/11/27 13:37:40;;;;;;;27.40;11.60;;;;;;;-0.13;83.00;97600.14;437548;1250;109635;-39
2023/11/27 13:47:52;;;;;;;27.10;12.50;;;;;;;-0.30;82.89;97594.30;437371;1250;107744;-40
2023/11/27 13:57:59;;;;;;;24.70;12.90;;;;;;;-0.55;82.78;97598.05;437548;1250;98057;-39
2023/11/27 14:08:11;;;;;;;29.80;14.90;;;;;;;-0.73;83.01;97586.29;437466;1251;97340;-40
2023/11/27 14:18:45;;;;;;;32.20;15.50;;;;;;;-0.74;83.09;97562.71;437689;1250;110214;-43
2023/11/27 14:39:13;;;;;;;49.50;18.30;;;;;;;-0.52;83.53;97543.32;437733;1250;97870;-40
2023/11/27 14:49:20;;;;;;;49.50;22.00;;;;;;;-0.69;83.51;97518.48;437580;1250;110439;-39
2023/11/27 14:59:28;;;;;;;51.40;24.10;;;;;;;-1.02;83.37;97503.33;437660;1250;107833;-40
2023/11/27 15:09:35;;;;;;;67.50;30.70;;;;;;;-1.45;83.28;97488.85;437540;1247;97758;-39
2023/11/27 15:29:48;;;;;;;126.50;55.60;;;;;;;-2.21;83.44;97476.60;437556;1250;111255;-40
2023/11/27 15:39:58;;;;;;;65.70;37.90;;;;;;;-2.45;83.50;97474.20;437531;1248;109272;-41
2023/11/27 15:50:07;;;;;;;140.80;63.60;;;;;;;-2.50;83.69;97457.55;437489;1250;97858;-40
2023/11/27 16:00:18;;;;;;;172.60;71.60;;;;;;;-2.51;83.90;97452.41;437607;1248;109745;-42
2023/11/27 16:10:26;;;;;;;181.60;78.70;;;;;;;-2.65;83.91;97441.60;437470;1250;108433;-39
2023/11/27 16:20:40;;;;;;;172.70;79.10;;;;;;;-2.89;83.90;97439.50;437854;1250;96615;-39
2023/11/27 16:40:53;;;;;;;224.00;103.00;;;;;;;-3.35;84.09;97425.21;437678;1250;111690;-39
2023/11/27 16:51:00;;;;;;;298.40;128.60;;;;;;;-3.51;84.47;97415.70;437481;1250;107457;-39
2023/11/27 17:01:06;;;;;;;180.60;97.20;;;;;;;-3.51;84.35;97408.86;437455;1248;96676;-40
2023/11/27 17:11:14;;;;;;;189.00;97.90;;;;;;;-3.61;84.23;97405.44;437566;1248;109872;-40
2023/11/27 17:21:21;;;;;;;273.40;122.60;;;;;;;-3.65;84.26;97401.66;437596;1247;108009;-40
2023/11/27 17:41:32;;;;;;;445.80;187.30;;;;;;;-4.08;84.70;97377.07;437615;1250;109802;-39
2023/11/27 17:51:38;;;;;;;403.40;176.70;;;;;;;-4.19;84.88;97367.77;437521;1250;108017;-39
2023/11/27 18:01:45;;;;;;;377.30;171.70;;;;;;;-4.28;84.89;97359.27;437643;1250;97845;-39
2023/11/27 18:11:52;;;;;;;266.40;132.70;;;;;;;-4.29;85.07;97343.27;437581;1248;110484;-40
2023/11/27 18:21:59;;;;;;;222.50;116.00;;;;;;;-4.24;84.86;97333.13;437739;1250;109022;-40
2023/11/27 18:32:06;;;;;;;199.00;93.50;;;;;;;-4.19;85.22;97323.08;437586;1248;98009;-40
2023/11/27 18:42:13;;;;;;;214.50;99.30;;;;;;;-3.93;85.75;97309.48;437794;1250;108656;-40
2023/11/27 18:52:22;;;;;;;235.60;104.80;;;;;;;-4.05;85.50;97308.73;437696;1247;107499;-39
2023/11/27 19:12:34;;;;;;;203.10;91.50;;;;;;;-4.08;85.97;97281.55;437745;1250;109438;-40
2023/11/27 19:22:41;;;;;;;151.30;78.40;;;;;;;-3.97;85.91;97267.58;437561;1250;108496;-40
2023/11/27 19:53:01;;;;;;;199.30;93.80;;;;;;;-3.44;86.09;97203.16;437595;1248;97418;-39
2023/11/27 20:03:09;;;;;;;188.40;90.10;;;;;;;-3.45;86.06;97190.07;437394;1250;97579;-38
2023/11/27 20:13:16;;;;;;;179.20;81.00;;;;;;;-3.67;85.66;97181.18;437707;1250;97575;-39
2023/11/27 20:23:24;;;;;;;156.20;75.30;;;;;;;-3.83;86.04;97169.77;437438;1250;111510;-39
2023/11/27 20:43:46;;;;;;;135.40;69.20;;;;;;;-3.79;85.89;97153.49;437476;1248;97889;-39
2023/11/27 21:03:59;;;;;;;149.20;67.90;;;;;;;-3.39;86.17;97130.59;437456;1247;107730;-39
2023/11/27 21:14:04;;;;;;;134.60;60.30;;;;;;;-3.25;86.55;97119.81;437843;1251;97890;-40
2023/11/27 21:24:11;;;;;;;154.60;60.10;;;;;;;-3.22;86.27;97108.44;438074;1250;110761;-40
2023/11/27 21:34:18;;;;;;;114.30;50.00;;;;;;;-3.27;86.29;97086.15;437530;1246;108598;-40
2023/11/27 21:44:25;;;;;;;98.00;44.80;;;;;;;-3.32;86.15;97080.27;437318;1246;97854;-39
2023/11/27 21:54:32;;;;;;;103.10;48.70;;;;;;;-3.21;86.15;97076.74;437441;1257;110764;-40
2023/11/27 22:04:39;;;;;;;96.50;40.50;;;;;;;-2.95;86.25;97061.13;437902;1248;107452;-39
2023/11/27 22:14:46;;;;;;;132.30;51.80;;;;;;;-2.81;86.45;97037.89;437523;1251;97886;-40
2023/11/27 22:24:52;;;;;;;114.10;44.20;;;;;;;-2.81;86.41;97024.27;437557;1250;97854;-38
2023/11/27 22:34:58;;;;;;;104.90;44.10;;;;;;;-2.87;86.28;97017.87;437914;1250;106626;-39
2023/11/27 22:45:06;;;;;;;98.20;44.30;;;;;;;-2.87;86.31;97006.01;438033;1247;97832;-40
2023/11/27 22:55:13;;;;;;;69.30;33.30;;;;;;;-2.89;86.23;96998.80;437522;1251;109640;-39
2023/11/27 23:05:20;;;;;;;40.70;20.90;;;;;;;-2.80;85.84;96984.60;437530;1247;108000;-41
2023/11/27 23:25:34;;;;;;;63.40;28.60;;;;;;;-2.50;86.22;96938.95;437555;1260;109831;-39
2023/11/27 23:35:42;;;;;;;73.00;34.70;;;;;;;-2.54;85.81;96925.91;437581;1260;106871;-39
2023/11/27 23:45:49;;;;;;;55.30;28.40;;;;;;;-2.57;85.67;96912.52;437411;1248;108394;-38
2023/11/27 23:55:56;;;;;;;70.20;32.70;;;;;;;-2.50;85.83;96912.29;437521;1250;97874;-40
